sensor_id;sensor_type;location;lat;lon;timestamp;P1;durP1;ratioP1;P2;durP2;ratioP2
37231;SDS011;23125;48.156;15.954;2024-02-04T00:00:44;2.92;;;1.98;;
37231;SDS011;23125;48.156;15.954;2024-02-04T00:03:10;1.85;;;1.58;;
37231;SDS011;23125;48.156;15.954;2024-02-04T00:05:36;2.75;;;1.67;;
37231;SDS011;23125;48.156;15.954;2024-02-04T00:08:02;3.10;;;1.85;;
37231;SDS011;23125;48.156;15.954;2024-02-04T00:10:28;2.25;;;1.70;;
37231;SDS011;23125;48.156;15.954;2024-02-04T00:12:54;3.78;;;2.22;;
37231;SDS011;23125;48.156;15.954;2024-02-04T00:15:20;3.78;;;2.20;;
37231;SDS011;23125;48.156;15.954;2024-02-04T00:17:46;2.90;;;2.13;;
37231;SDS011;23125;48.156;15.954;2024-02-04T00:20:11;5.45;;;2.30;;
37231;SDS011;23125;48.156;15.954;2024-02-04T00:22:37;3.00;;;2.08;;
37231;SDS011;23125;48.156;15.954;2024-02-04T00:25:03;2.42;;;1.83;;
37231;SDS011;23125;48.156;15.954;2024-02-04T00:27:30;2.42;;;2.10;;
37231;SDS011;23125;48.156;15.954;2024-02-04T00:29:57;2.55;;;1.85;;
37231;SDS011;23125;48.156;15.954;2024-02-04T00:32:24;3.10;;;1.83;;
37231;SDS011;23125;48.156;15.954;2024-02-04T00:34:51;2.42;;;1.90;;
37231;SDS011;23125;48.156;15.954;2024-02-04T00:37:17;3.00;;;2.20;;
37231;SDS011;23125;48.156;15.954;2024-02-04T00:39:43;2.28;;;1.77;;
37231;SDS011;23125;48.156;15.954;2024-02-04T00:42:10;2.35;;;1.85;;
37231;SDS011;23125;48.156;15.954;2024-02-04T00:44:36;2.05;;;1.40;;
37231;SDS011;23125;48.156;15.954;2024-02-04T00:47:02;1.80;;;1.50;;
37231;SDS011;23125;48.156;15.954;2024-02-04T00:49:28;2.28;;;1.80;;
37231;SDS011;23125;48.156;15.954;2024-02-04T00:51:54;1.42;;;1.13;;
37231;SDS011;23125;48.156;15.954;2024-02-04T00:54:20;2.45;;;1.95;;
37231;SDS011;23125;48.156;15.954;2024-02-04T00:56:46;2.60;;;1.70;;
37231;SDS011;23125;48.156;15.954;2024-02-04T00:59:12;2.03;;;1.45;;
37231;SDS011;23125;48.156;15.954;2024-02-04T01:01:38;1.88;;;1.38;;
37231;SDS011;23125;48.156;15.954;2024-02-04T01:04:04;1.75;;;1.45;;
37231;SDS011;23125;48.156;15.954;2024-02-04T01:06:30;3.13;;;1.80;;
37231;SDS011;23125;48.156;15.954;2024-02-04T01:08:56;1.48;;;1.20;;
37231;SDS011;23125;48.156;15.954;2024-02-04T01:11:22;1.98;;;1.27;;
37231;SDS011;23125;48.156;15.954;2024-02-04T01:13:48;2.25;;;1.38;;
37231;SDS011;23125;48.156;15.954;2024-02-04T01:16:14;2.72;;;1.98;;
37231;SDS011;23125;48.156;15.954;2024-02-04T01:18:40;1.60;;;1.20;;
37231;SDS011;23125;48.156;15.954;2024-02-04T01:21:06;1.70;;;1.50;;
37231;SDS011;23125;48.156;15.954;2024-02-04T01:23:33;3.25;;;1.90;;
37231;SDS011;23125;48.156;15.954;2024-02-04T01:26:00;2.17;;;1.60;;
37231;SDS011;23125;48.156;15.954;2024-02-04T01:28:26;3.00;;;1.58;;
37231;SDS011;23125;48.156;15.954;2024-02-04T01:30:52;2.78;;;1.85;;
37231;SDS011;23125;48.156;15.954;2024-02-04T01:33:17;2.92;;;2.15;;
37231;SDS011;23125;48.156;15.954;2024-02-04T01:35:43;2.28;;;2.08;;
37231;SDS011;23125;48.156;15.954;2024-02-04T01:38:09;2.63;;;2.25;;
37231;SDS011;23125;48.156;15.954;2024-02-04T01:40:35;2.97;;;2.28;;
37231;SDS011;23125;48.156;15.954;2024-02-04T01:43:01;3.08;;;2.40;;
37231;SDS011;23125;48.156;15.954;2024-02-04T01:45:27;3.20;;;2.17;;
37231;SDS011;23125;48.156;15.954;2024-02-04T01:47:53;3.05;;;2.60;;
37231;SDS011;23125;48.156;15.954;2024-02-04T01:50:20;2.70;;;2.50;;
37231;SDS011;23125;48.156;15.954;2024-02-04T01:52:47;2.83;;;2.42;;
37231;SDS011;23125;48.156;15.954;2024-02-04T01:55:13;4.28;;;2.83;;
37231;SDS011;23125;48.156;15.954;2024-02-04T01:57:40;3.33;;;2.42;;
37231;SDS011;23125;48.156;15.954;2024-02-04T02:00:06;3.25;;;2.47;;
37231;SDS011;23125;48.156;15.954;2024-02-04T02:02:41;5.18;;;2.50;;
37231;SDS011;23125;48.156;15.954;2024-02-04T02:05:08;3.05;;;2.40;;
37231;SDS011;23125;48.156;15.954;2024-02-04T02:07:34;3.50;;;2.55;;
37231;SDS011;23125;48.156;15.954;2024-02-04T02:10:00;3.17;;;2.72;;
37231;SDS011;23125;48.156;15.954;2024-02-04T02:12:27;3.58;;;2.47;;
37231;SDS011;23125;48.156;15.954;2024-02-04T02:15:15;2.97;;;1.70;;
37231;SDS011;23125;48.156;15.954;2024-02-04T02:17:46;4.03;;;2.80;;
37231;SDS011;23125;48.156;15.954;2024-02-04T02:20:20;3.17;;;2.40;;
37231;SDS011;23125;48.156;15.954;2024-02-04T02:23:14;3.35;;;2.67;;
37231;SDS011;23125;48.156;15.954;2024-02-04T02:25:42;3.63;;;2.85;;
37231;SDS011;23125;48.156;15.954;2024-02-04T02:28:11;3.60;;;2.38;;
37231;SDS011;23125;48.156;15.954;2024-02-04T02:30:37;3.75;;;2.53;;
37231;SDS011;23125;48.156;15.954;2024-02-04T02:33:03;2.97;;;2.22;;
37231;SDS011;23125;48.156;15.954;2024-02-04T02:38:03;3.63;;;2.28;;
37231;SDS011;23125;48.156;15.954;2024-02-04T02:40:50;3.83;;;2.28;;
37231;SDS011;23125;48.156;15.954;2024-02-04T02:43:19;3.45;;;2.15;;
37231;SDS011;23125;48.156;15.954;2024-02-04T02:45:47;3.25;;;2.30;;
37231;SDS011;23125;48.156;15.954;2024-02-04T02:48:13;5.80;;;2.83;;
37231;SDS011;23125;48.156;15.954;2024-02-04T02:50:40;2.83;;;1.98;;
37231;SDS011;23125;48.156;15.954;2024-02-04T02:53:06;3.53;;;2.20;;
37231;SDS011;23125;48.156;15.954;2024-02-04T02:55:31;2.58;;;2.05;;
37231;SDS011;23125;48.156;15.954;2024-02-04T02:57:57;3.00;;;1.60;;
37231;SDS011;23125;48.156;15.954;2024-02-04T03:00:23;3.92;;;2.22;;
37231;SDS011;23125;48.156;15.954;2024-02-04T03:02:49;2.10;;;1.75;;
37231;SDS011;23125;48.156;15.954;2024-02-04T03:05:15;2.47;;;2.00;;
37231;SDS011;23125;48.156;15.954;2024-02-04T03:07:41;2.70;;;2.15;;
37231;SDS011;23125;48.156;15.954;2024-02-04T03:10:08;2.88;;;2.05;;
37231;SDS011;23125;48.156;15.954;2024-02-04T03:12:34;3.05;;;2.08;;
37231;SDS011;23125;48.156;15.954;2024-02-04T03:15:00;3.00;;;1.80;;
37231;SDS011;23125;48.156;15.954;2024-02-04T03:17:26;2.38;;;1.50;;
37231;SDS011;23125;48.156;15.954;2024-02-04T03:19:52;2.42;;;1.80;;
37231;SDS011;23125;48.156;15.954;2024-02-04T03:22:20;2.63;;;1.70;;
37231;SDS011;23125;48.156;15.954;2024-02-04T03:24:49;3.92;;;2.08;;
37231;SDS011;23125;48.156;15.954;2024-02-04T03:27:18;3.47;;;2.20;;
37231;SDS011;23125;48.156;15.954;2024-02-04T03:29:46;2.88;;;1.80;;
37231;SDS011;23125;48.156;15.954;2024-02-04T03:32:12;2.25;;;1.77;;
37231;SDS011;23125;48.156;15.954;2024-02-04T03:34:38;3.88;;;2.20;;
37231;SDS011;23125;48.156;15.954;2024-02-04T03:37:06;4.20;;;2.38;;
37231;SDS011;23125;48.156;15.954;2024-02-04T03:39:32;3.42;;;2.22;;
37231;SDS011;23125;48.156;15.954;2024-02-04T03:41:58;2.70;;;2.05;;
37231;SDS011;23125;48.156;15.954;2024-02-04T03:44:24;3.40;;;2.47;;
37231;SDS011;23125;48.156;15.954;2024-02-04T03:46:50;2.78;;;2.03;;
37231;SDS011;23125;48.156;15.954;2024-02-04T03:49:16;2.65;;;1.85;;
37231;SDS011;23125;48.156;15.954;2024-02-04T03:51:43;2.92;;;1.98;;
37231;SDS011;23125;48.156;15.954;2024-02-04T03:54:09;3.28;;;2.05;;
37231;SDS011;23125;48.156;15.954;2024-02-04T03:56:35;2.95;;;2.03;;
37231;SDS011;23125;48.156;15.954;2024-02-04T03:59:00;3.15;;;2.20;;
37231;SDS011;23125;48.156;15.954;2024-02-04T04:01:26;2.47;;;1.77;;
37231;SDS011;23125;48.156;15.954;2024-02-04T04:03:52;3.72;;;2.25;;
37231;SDS011;23125;48.156;15.954;2024-02-04T04:06:18;2.40;;;1.92;;
37231;SDS011;23125;48.156;15.954;2024-02-04T04:08:44;3.28;;;1.70;;
37231;SDS011;23125;48.156;15.954;2024-02-04T04:11:10;3.25;;;2.20;;
37231;SDS011;23125;48.156;15.954;2024-02-04T04:13:36;2.05;;;1.45;;
37231;SDS011;23125;48.156;15.954;2024-02-04T04:16:03;4.63;;;2.53;;
37231;SDS011;23125;48.156;15.954;2024-02-04T04:18:30;3.40;;;2.60;;
37231;SDS011;23125;48.156;15.954;2024-02-04T04:20:56;3.38;;;2.20;;
37231;SDS011;23125;48.156;15.954;2024-02-04T04:23:22;3.63;;;1.88;;
37231;SDS011;23125;48.156;15.954;2024-02-04T04:25:48;2.88;;;2.03;;
37231;SDS011;23125;48.156;15.954;2024-02-04T04:28:14;4.97;;;2.72;;
37231;SDS011;23125;48.156;15.954;2024-02-04T04:30:40;3.08;;;2.00;;
37231;SDS011;23125;48.156;15.954;2024-02-04T04:33:05;2.85;;;2.08;;
37231;SDS011;23125;48.156;15.954;2024-02-04T04:35:31;7.93;;;3.67;;
37231;SDS011;23125;48.156;15.954;2024-02-04T04:37:57;9.90;;;5.47;;
37231;SDS011;23125;48.156;15.954;2024-02-04T04:40:23;7.88;;;4.65;;
37231;SDS011;23125;48.156;15.954;2024-02-04T04:42:49;8.52;;;3.40;;
37231;SDS011;23125;48.156;15.954;2024-02-04T04:45:15;11.40;;;4.15;;
37231;SDS011;23125;48.156;15.954;2024-02-04T04:47:41;2.58;;;1.73;;
37231;SDS011;23125;48.156;15.954;2024-02-04T04:50:07;2.40;;;1.63;;
37231;SDS011;23125;48.156;15.954;2024-02-04T04:52:33;1.75;;;1.38;;
37231;SDS011;23125;48.156;15.954;2024-02-04T04:54:59;2.00;;;1.38;;
37231;SDS011;23125;48.156;15.954;2024-02-04T04:57:25;2.28;;;1.63;;
37231;SDS011;23125;48.156;15.954;2024-02-04T04:59:51;3.05;;;1.80;;
37231;SDS011;23125;48.156;15.954;2024-02-04T05:02:17;3.85;;;2.20;;
37231;SDS011;23125;48.156;15.954;2024-02-04T05:04:43;4.10;;;2.00;;
37231;SDS011;23125;48.156;15.954;2024-02-04T05:07:10;2.47;;;1.60;;
37231;SDS011;23125;48.156;15.954;2024-02-04T05:09:36;4.30;;;2.00;;
37231;SDS011;23125;48.156;15.954;2024-02-04T05:12:03;2.53;;;1.80;;
37231;SDS011;23125;48.156;15.954;2024-02-04T05:14:29;1.88;;;1.55;;
37231;SDS011;23125;48.156;15.954;2024-02-04T05:16:55;3.10;;;2.42;;
37231;SDS011;23125;48.156;15.954;2024-02-04T05:19:20;3.40;;;1.90;;
37231;SDS011;23125;48.156;15.954;2024-02-04T05:21:46;3.03;;;2.00;;
37231;SDS011;23125;48.156;15.954;2024-02-04T05:24:12;3.53;;;2.20;;
37231;SDS011;23125;48.156;15.954;2024-02-04T05:26:38;3.55;;;2.17;;
37231;SDS011;23125;48.156;15.954;2024-02-04T05:29:04;3.20;;;2.28;;
37231;SDS011;23125;48.156;15.954;2024-02-04T05:31:30;2.83;;;2.30;;
37231;SDS011;23125;48.156;15.954;2024-02-04T05:33:56;3.90;;;2.55;;
37231;SDS011;23125;48.156;15.954;2024-02-04T05:36:22;3.17;;;2.15;;
37231;SDS011;23125;48.156;15.954;2024-02-04T05:38:47;2.70;;;2.05;;
37231;SDS011;23125;48.156;15.954;2024-02-04T05:41:13;2.80;;;1.95;;
37231;SDS011;23125;48.156;15.954;2024-02-04T05:43:39;4.15;;;2.60;;
37231;SDS011;23125;48.156;15.954;2024-02-04T05:46:05;2.65;;;1.88;;
37231;SDS011;23125;48.156;15.954;2024-02-04T05:48:31;3.67;;;2.35;;
37231;SDS011;23125;48.156;15.954;2024-02-04T05:50:57;3.72;;;2.53;;
37231;SDS011;23125;48.156;15.954;2024-02-04T05:53:24;4.30;;;2.83;;
37231;SDS011;23125;48.156;15.954;2024-02-04T05:55:50;2.78;;;2.13;;
37231;SDS011;23125;48.156;15.954;2024-02-04T05:58:16;2.13;;;1.70;;
37231;SDS011;23125;48.156;15.954;2024-02-04T06:00:42;4.07;;;2.17;;
37231;SDS011;23125;48.156;15.954;2024-02-04T06:03:07;3.55;;;2.47;;
37231;SDS011;23125;48.156;15.954;2024-02-04T06:05:33;3.03;;;1.77;;
37231;SDS011;23125;48.156;15.954;2024-02-04T06:07:59;3.65;;;2.47;;
37231;SDS011;23125;48.156;15.954;2024-02-04T06:10:25;2.20;;;1.73;;
37231;SDS011;23125;48.156;15.954;2024-02-04T06:12:51;2.83;;;1.83;;
37231;SDS011;23125;48.156;15.954;2024-02-04T06:15:16;2.55;;;1.92;;
37231;SDS011;23125;48.156;15.954;2024-02-04T06:17:42;2.45;;;1.90;;
37231;SDS011;23125;48.156;15.954;2024-02-04T06:20:09;5.35;;;2.70;;
37231;SDS011;23125;48.156;15.954;2024-02-04T06:22:35;5.15;;;2.92;;
37231;SDS011;23125;48.156;15.954;2024-02-04T06:25:02;4.65;;;2.65;;
37231;SDS011;23125;48.156;15.954;2024-02-04T06:27:29;7.07;;;3.30;;
37231;SDS011;23125;48.156;15.954;2024-02-04T06:29:56;5.80;;;2.88;;
37231;SDS011;23125;48.156;15.954;2024-02-04T06:32:22;5.90;;;3.72;;
37231;SDS011;23125;48.156;15.954;2024-02-04T06:34:49;4.28;;;2.60;;
37231;SDS011;23125;48.156;15.954;2024-02-04T06:37:16;3.53;;;2.30;;
37231;SDS011;23125;48.156;15.954;2024-02-04T06:39:42;2.88;;;2.20;;
37231;SDS011;23125;48.156;15.954;2024-02-04T06:42:08;3.30;;;2.13;;
37231;SDS011;23125;48.156;15.954;2024-02-04T06:44:34;2.63;;;1.95;;
37231;SDS011;23125;48.156;15.954;2024-02-04T06:47:00;3.55;;;1.83;;
37231;SDS011;23125;48.156;15.954;2024-02-04T06:49:26;3.40;;;2.35;;
37231;SDS011;23125;48.156;15.954;2024-02-04T06:51:52;2.38;;;1.70;;
37231;SDS011;23125;48.156;15.954;2024-02-04T06:56:48;2.80;;;1.80;;
37231;SDS011;23125;48.156;15.954;2024-02-04T06:59:14;2.85;;;1.95;;
37231;SDS011;23125;48.156;15.954;2024-02-04T07:01:39;2.42;;;1.90;;
37231;SDS011;23125;48.156;15.954;2024-02-04T07:04:05;3.13;;;2.08;;
37231;SDS011;23125;48.156;15.954;2024-02-04T07:06:31;2.95;;;1.80;;
37231;SDS011;23125;48.156;15.954;2024-02-04T07:08:57;4.00;;;1.80;;
37231;SDS011;23125;48.156;15.954;2024-02-04T07:11:24;2.70;;;1.67;;
37231;SDS011;23125;48.156;15.954;2024-02-04T07:13:50;3.42;;;1.90;;
37231;SDS011;23125;48.156;15.954;2024-02-04T07:16:23;2.38;;;1.83;;
37231;SDS011;23125;48.156;15.954;2024-02-04T07:18:50;2.28;;;1.70;;
37231;SDS011;23125;48.156;15.954;2024-02-04T07:21:16;2.65;;;1.67;;
37231;SDS011;23125;48.156;15.954;2024-02-04T07:23:42;2.45;;;1.48;;
37231;SDS011;23125;48.156;15.954;2024-02-04T07:26:08;4.65;;;1.90;;
37231;SDS011;23125;48.156;15.954;2024-02-04T07:28:34;1.67;;;0.98;;
37231;SDS011;23125;48.156;15.954;2024-02-04T07:31:00;2.75;;;1.45;;
37231;SDS011;23125;48.156;15.954;2024-02-04T07:33:26;1.88;;;1.15;;
37231;SDS011;23125;48.156;15.954;2024-02-04T07:35:52;2.63;;;1.10;;
37231;SDS011;23125;48.156;15.954;2024-02-04T07:38:18;2.42;;;1.20;;
37231;SDS011;23125;48.156;15.954;2024-02-04T07:40:44;2.88;;;1.13;;
37231;SDS011;23125;48.156;15.954;2024-02-04T07:43:09;4.25;;;2.03;;
37231;SDS011;23125;48.156;15.954;2024-02-04T07:45:35;5.72;;;1.80;;
37231;SDS011;23125;48.156;15.954;2024-02-04T07:48:01;6.50;;;2.35;;
37231;SDS011;23125;48.156;15.954;2024-02-04T07:50:27;2.50;;;0.80;;
37231;SDS011;23125;48.156;15.954;2024-02-04T07:52:53;4.13;;;1.38;;
37231;SDS011;23125;48.156;15.954;2024-02-04T07:55:19;1.55;;;0.75;;
37231;SDS011;23125;48.156;15.954;2024-02-04T07:57:45;2.17;;;0.77;;
37231;SDS011;23125;48.156;15.954;2024-02-04T08:00:11;1.38;;;0.50;;
37231;SDS011;23125;48.156;15.954;2024-02-04T08:02:37;2.60;;;1.33;;
37231;SDS011;23125;48.156;15.954;2024-02-04T08:05:04;2.55;;;1.50;;
37231;SDS011;23125;48.156;15.954;2024-02-04T08:07:31;1.08;;;0.60;;
37231;SDS011;23125;48.156;15.954;2024-02-04T08:09:57;2.83;;;1.17;;
37231;SDS011;23125;48.156;15.954;2024-02-04T08:12:23;2.33;;;1.10;;
37231;SDS011;23125;48.156;15.954;2024-02-04T08:14:49;1.38;;;0.75;;
37231;SDS011;23125;48.156;15.954;2024-02-04T08:17:15;0.93;;;0.47;;
37231;SDS011;23125;48.156;15.954;2024-02-04T08:19:41;1.27;;;0.60;;
37231;SDS011;23125;48.156;15.954;2024-02-04T08:22:07;0.60;;;0.40;;
37231;SDS011;23125;48.156;15.954;2024-02-04T08:24:34;0.98;;;0.50;;
37231;SDS011;23125;48.156;15.954;2024-02-04T08:27:00;0.90;;;0.40;;
37231;SDS011;23125;48.156;15.954;2024-02-04T08:29:26;0.88;;;0.32;;
37231;SDS011;23125;48.156;15.954;2024-02-04T08:31:52;1.02;;;0.60;;
37231;SDS011;23125;48.156;15.954;2024-02-04T08:34:18;0.52;;;0.30;;
37231;SDS011;23125;48.156;15.954;2024-02-04T08:36:51;0.70;;;0.30;;
37231;SDS011;23125;48.156;15.954;2024-02-04T08:39:17;0.30;;;0.20;;
37231;SDS011;23125;48.156;15.954;2024-02-04T08:41:43;1.92;;;0.60;;
37231;SDS011;23125;48.156;15.954;2024-02-04T08:44:09;1.55;;;0.40;;
37231;SDS011;23125;48.156;15.954;2024-02-04T08:46:35;1.42;;;0.40;;
37231;SDS011;23125;48.156;15.954;2024-02-04T08:49:01;2.40;;;0.40;;
37231;SDS011;23125;48.156;15.954;2024-02-04T08:51:26;1.13;;;0.52;;
37231;SDS011;23125;48.156;15.954;2024-02-04T08:53:52;0.60;;;0.35;;
37231;SDS011;23125;48.156;15.954;2024-02-04T08:56:18;0.60;;;0.20;;
37231;SDS011;23125;48.156;15.954;2024-02-04T08:58:45;1.10;;;0.40;;
37231;SDS011;23125;48.156;15.954;2024-02-04T09:01:11;1.52;;;0.30;;
37231;SDS011;23125;48.156;15.954;2024-02-04T09:03:37;0.57;;;0.35;;
37231;SDS011;23125;48.156;15.954;2024-02-04T09:06:03;0.52;;;0.20;;
37231;SDS011;23125;48.156;15.954;2024-02-04T09:08:29;0.75;;;0.30;;
37231;SDS011;23125;48.156;15.954;2024-02-04T09:10:56;0.50;;;0.20;;
37231;SDS011;23125;48.156;15.954;2024-02-04T09:13:22;0.35;;;0.25;;
37231;SDS011;23125;48.156;15.954;2024-02-04T09:15:48;0.10;;;0.10;;
37231;SDS011;23125;48.156;15.954;2024-02-04T09:18:15;0.50;;;0.20;;
37231;SDS011;23125;48.156;15.954;2024-02-04T09:20:41;0.25;;;0.13;;
37231;SDS011;23125;48.156;15.954;2024-02-04T09:23:07;0.93;;;0.30;;
37231;SDS011;23125;48.156;15.954;2024-02-04T09:25:33;0.45;;;0.20;;
37231;SDS011;23125;48.156;15.954;2024-02-04T09:27:59;0.40;;;0.20;;
37231;SDS011;23125;48.156;15.954;2024-02-04T09:30:25;0.43;;;0.20;;
37231;SDS011;23125;48.156;15.954;2024-02-04T09:32:51;0.63;;;0.30;;
37231;SDS011;23125;48.156;15.954;2024-02-04T09:35:17;0.45;;;0.10;;
37231;SDS011;23125;48.156;15.954;2024-02-04T09:37:42;0.60;;;0.20;;
37231;SDS011;23125;48.156;15.954;2024-02-04T09:40:09;0.93;;;0.28;;
37231;SDS011;23125;48.156;15.954;2024-02-04T09:42:35;0.70;;;0.30;;
37231;SDS011;23125;48.156;15.954;2024-02-04T09:45:01;0.70;;;0.30;;
37231;SDS011;23125;48.156;15.954;2024-02-04T09:47:27;0.93;;;0.35;;
37231;SDS011;23125;48.156;15.954;2024-02-04T09:49:55;0.70;;;0.30;;
37231;SDS011;23125;48.156;15.954;2024-02-04T09:52:21;0.40;;;0.30;;
37231;SDS011;23125;48.156;15.954;2024-02-04T09:54:57;0.85;;;0.30;;
37231;SDS011;23125;48.156;15.954;2024-02-04T09:57:26;0.40;;;0.20;;
37231;SDS011;23125;48.156;15.954;2024-02-04T09:59:54;0.25;;;0.10;;
37231;SDS011;23125;48.156;15.954;2024-02-04T10:02:20;0.40;;;0.20;;
37231;SDS011;23125;48.156;15.954;2024-02-04T10:04:47;0.47;;;0.25;;
37231;SDS011;23125;48.156;15.954;2024-02-04T10:07:14;0.82;;;0.25;;
37231;SDS011;23125;48.156;15.954;2024-02-04T10:09:42;4.82;;;1.63;;
37231;SDS011;23125;48.156;15.954;2024-02-04T10:12:08;1.73;;;0.63;;
37231;SDS011;23125;48.156;15.954;2024-02-04T10:14:35;3.30;;;0.90;;
37231;SDS011;23125;48.156;15.954;2024-02-04T10:17:01;2.75;;;0.73;;
37231;SDS011;23125;48.156;15.954;2024-02-04T10:19:27;1.50;;;0.40;;
37231;SDS011;23125;48.156;15.954;2024-02-04T10:21:59;1.48;;;0.40;;
37231;SDS011;23125;48.156;15.954;2024-02-04T10:24:26;3.38;;;0.50;;
37231;SDS011;23125;48.156;15.954;2024-02-04T10:26:53;1.40;;;0.77;;
37231;SDS011;23125;48.156;15.954;2024-02-04T10:29:20;2.20;;;0.35;;
37231;SDS011;23125;48.156;15.954;2024-02-04T10:34:28;0.80;;;0.30;;
37231;SDS011;23125;48.156;15.954;2024-02-04T10:36:57;0.47;;;0.10;;
37231;SDS011;23125;48.156;15.954;2024-02-04T10:39:23;0.80;;;0.20;;
37231;SDS011;23125;48.156;15.954;2024-02-04T10:41:49;0.93;;;0.20;;
37231;SDS011;23125;48.156;15.954;2024-02-04T10:44:17;1.60;;;0.32;;
37231;SDS011;23125;48.156;15.954;2024-02-04T10:46:46;1.45;;;0.30;;
37231;SDS011;23125;48.156;15.954;2024-02-04T10:49:15;0.43;;;0.10;;
37231;SDS011;23125;48.156;15.954;2024-02-04T10:51:42;0.60;;;0.20;;
37231;SDS011;23125;48.156;15.954;2024-02-04T10:54:16;0.28;;;0.10;;
37231;SDS011;23125;48.156;15.954;2024-02-04T10:56:47;0.40;;;0.10;;
37231;SDS011;23125;48.156;15.954;2024-02-04T10:59:24;0.28;;;0.22;;
37231;SDS011;23125;48.156;15.954;2024-02-04T11:01:55;0.73;;;0.20;;
37231;SDS011;23125;48.156;15.954;2024-02-04T11:04:22;1.73;;;0.40;;
37231;SDS011;23125;48.156;15.954;2024-02-04T11:06:49;0.60;;;0.20;;
37231;SDS011;23125;48.156;15.954;2024-02-04T11:09:16;0.70;;;0.28;;
37231;SDS011;23125;48.156;15.954;2024-02-04T11:11:44;1.27;;;0.28;;
37231;SDS011;23125;48.156;15.954;2024-02-04T11:14:12;1.95;;;0.68;;
37231;SDS011;23125;48.156;15.954;2024-02-04T11:16:46;0.60;;;0.20;;
37231;SDS011;23125;48.156;15.954;2024-02-04T11:19:35;1.50;;;0.20;;
37231;SDS011;23125;48.156;15.954;2024-02-04T11:27:29;0.80;;;0.20;;
37231;SDS011;23125;48.156;15.954;2024-02-04T11:29:56;0.40;;;0.30;;
37231;SDS011;23125;48.156;15.954;2024-02-04T11:32:23;1.08;;;0.20;;
37231;SDS011;23125;48.156;15.954;2024-02-04T11:34:50;2.15;;;0.63;;
37231;SDS011;23125;48.156;15.954;2024-02-04T11:37:17;1.50;;;0.50;;
37231;SDS011;23125;48.156;15.954;2024-02-04T11:39:50;1.08;;;0.60;;
37231;SDS011;23125;48.156;15.954;2024-02-04T11:42:17;1.73;;;0.50;;
37231;SDS011;23125;48.156;15.954;2024-02-04T11:44:43;1.80;;;0.80;;
37231;SDS011;23125;48.156;15.954;2024-02-04T11:47:22;1.38;;;0.60;;
37231;SDS011;23125;48.156;15.954;2024-02-04T11:49:55;1.08;;;0.50;;
37231;SDS011;23125;48.156;15.954;2024-02-04T11:52:22;0.65;;;0.30;;
37231;SDS011;23125;48.156;15.954;2024-02-04T11:54:48;1.42;;;0.60;;
37231;SDS011;23125;48.156;15.954;2024-02-04T11:57:15;1.55;;;0.50;;
37231;SDS011;23125;48.156;15.954;2024-02-04T11:59:42;2.25;;;0.68;;
37231;SDS011;23125;48.156;15.954;2024-02-04T12:02:10;2.50;;;0.98;;
37231;SDS011;23125;48.156;15.954;2024-02-04T12:04:37;0.85;;;0.30;;
37231;SDS011;23125;48.156;15.954;2024-02-04T12:07:05;1.17;;;0.40;;
37231;SDS011;23125;48.156;15.954;2024-02-04T12:09:32;0.75;;;0.30;;
37231;SDS011;23125;48.156;15.954;2024-02-04T12:11:58;0.65;;;0.50;;
37231;SDS011;23125;48.156;15.954;2024-02-04T12:14:24;1.00;;;0.50;;
37231;SDS011;23125;48.156;15.954;2024-02-04T12:16:51;0.60;;;0.30;;
37231;SDS011;23125;48.156;15.954;2024-02-04T12:19:17;0.75;;;0.40;;
37231;SDS011;23125;48.156;15.954;2024-02-04T12:21:43;1.45;;;0.50;;
37231;SDS011;23125;48.156;15.954;2024-02-04T12:24:09;2.25;;;0.60;;
37231;SDS011;23125;48.156;15.954;2024-02-04T12:26:35;2.35;;;0.63;;
37231;SDS011;23125;48.156;15.954;2024-02-04T12:29:01;1.60;;;0.82;;
37231;SDS011;23125;48.156;15.954;2024-02-04T12:31:28;2.03;;;0.60;;
37231;SDS011;23125;48.156;15.954;2024-02-04T12:33:57;1.60;;;0.77;;
37231;SDS011;23125;48.156;15.954;2024-02-04T12:36:25;1.80;;;1.05;;
37231;SDS011;23125;48.156;15.954;2024-02-04T12:38:55;1.20;;;0.70;;
37231;SDS011;23125;48.156;15.954;2024-02-04T12:41:22;2.75;;;1.63;;
37231;SDS011;23125;48.156;15.954;2024-02-04T12:43:52;5.15;;;2.25;;
37231;SDS011;23125;48.156;15.954;2024-02-04T12:46:19;6.07;;;2.95;;
37231;SDS011;23125;48.156;15.954;2024-02-04T12:48:53;3.38;;;1.63;;
37231;SDS011;23125;48.156;15.954;2024-02-04T12:51:24;8.10;;;5.10;;
37231;SDS011;23125;48.156;15.954;2024-02-04T12:54:07;12.05;;;6.68;;
37231;SDS011;23125;48.156;15.954;2024-02-04T12:59:09;4.40;;;2.58;;
37231;SDS011;23125;48.156;15.954;2024-02-04T13:01:36;4.15;;;2.53;;
37231;SDS011;23125;48.156;15.954;2024-02-04T13:04:05;3.35;;;1.88;;
37231;SDS011;23125;48.156;15.954;2024-02-04T13:06:31;1.48;;;0.80;;
37231;SDS011;23125;48.156;15.954;2024-02-04T13:09:03;2.92;;;1.58;;
37231;SDS011;23125;48.156;15.954;2024-02-04T18:28:01;1.23;;;0.60;;
37231;SDS011;23125;48.156;15.954;2024-02-04T18:32:34;1.05;;;0.73;;
37231;SDS011;23125;48.156;15.954;2024-02-04T18:35:00;2.08;;;0.90;;
37231;SDS011;23125;48.156;15.954;2024-02-04T18:37:26;1.98;;;0.70;;
37231;SDS011;23125;48.156;15.954;2024-02-04T18:39:52;1.70;;;0.75;;
37231;SDS011;23125;48.156;15.954;2024-02-04T18:42:18;0.93;;;0.73;;
37231;SDS011;23125;48.156;15.954;2024-02-04T18:44:44;1.75;;;0.80;;
37231;SDS011;23125;48.156;15.954;2024-02-04T18:47:11;1.05;;;0.90;;
37231;SDS011;23125;48.156;15.954;2024-02-04T18:49:37;1.40;;;0.68;;
37231;SDS011;23125;48.156;15.954;2024-02-04T18:52:04;1.88;;;1.00;;
37231;SDS011;23125;48.156;15.954;2024-02-04T18:54:34;3.45;;;1.80;;
37231;SDS011;23125;48.156;15.954;2024-02-04T18:57:01;12.75;;;5.03;;
37231;SDS011;23125;48.156;15.954;2024-02-04T18:59:29;20.27;;;9.32;;
37231;SDS011;23125;48.156;15.954;2024-02-04T19:01:55;4.70;;;3.33;;
37231;SDS011;23125;48.156;15.954;2024-02-04T19:04:23;1.88;;;1.38;;
37231;SDS011;23125;48.156;15.954;2024-02-04T19:06:50;1.50;;;0.90;;
37231;SDS011;23125;48.156;15.954;2024-02-04T19:09:15;1.85;;;1.10;;
37231;SDS011;23125;48.156;15.954;2024-02-04T19:11:42;1.48;;;1.00;;
37231;SDS011;23125;48.156;15.954;2024-02-04T19:14:08;1.20;;;0.68;;
37231;SDS011;23125;48.156;15.954;2024-02-04T19:16:35;1.92;;;1.02;;
37231;SDS011;23125;48.156;15.954;2024-02-04T19:19:01;0.98;;;0.73;;
37231;SDS011;23125;48.156;15.954;2024-02-04T19:21:30;2.20;;;0.90;;
37231;SDS011;23125;48.156;15.954;2024-02-04T19:23:56;1.48;;;0.80;;
37231;SDS011;23125;48.156;15.954;2024-02-04T19:26:28;2.13;;;0.77;;
37231;SDS011;23125;48.156;15.954;2024-02-04T19:28:54;1.00;;;0.52;;
37231;SDS011;23125;48.156;15.954;2024-02-04T19:31:20;1.73;;;1.10;;
37231;SDS011;23125;48.156;15.954;2024-02-04T19:33:46;1.77;;;0.52;;
37231;SDS011;23125;48.156;15.954;2024-02-04T19:36:12;1.30;;;0.50;;
37231;SDS011;23125;48.156;15.954;2024-02-04T19:38:38;3.78;;;1.00;;
37231;SDS011;23125;48.156;15.954;2024-02-04T19:41:04;1.65;;;0.60;;
37231;SDS011;23125;48.156;15.954;2024-02-04T19:43:30;1.30;;;0.60;;
37231;SDS011;23125;48.156;15.954;2024-02-04T19:45:56;1.55;;;0.80;;
37231;SDS011;23125;48.156;15.954;2024-02-04T19:48:23;0.95;;;0.60;;
37231;SDS011;23125;48.156;15.954;2024-02-04T19:50:50;1.25;;;0.65;;
37231;SDS011;23125;48.156;15.954;2024-02-04T19:53:15;1.27;;;0.60;;
37231;SDS011;23125;48.156;15.954;2024-02-04T19:55:41;1.85;;;0.60;;
37231;SDS011;23125;48.156;15.954;2024-02-04T19:58:07;0.73;;;0.40;;
37231;SDS011;23125;48.156;15.954;2024-02-04T20:00:33;2.35;;;0.50;;
37231;SDS011;23125;48.156;15.954;2024-02-04T20:02:59;2.05;;;0.75;;
37231;SDS011;23125;48.156;15.954;2024-02-04T20:05:25;0.70;;;0.32;;